createdAt,value
2017-11-05T00:02:15.789Z,76.90
2017-11-05T00:04:43.355Z,76.80
2017-11-05T00:07:10.950Z,77.30
2017-11-05T00:09:39.284Z,77.70
2017-11-05T00:12:06.853Z,77.70
2017-11-05T00:14:34.444Z,77.60
2017-11-05T00:17:02.771Z,77.30
2017-11-05T00:19:30.349Z,77.20
2017-11-05T00:21:57.937Z,77.30
2017-11-05T00:24:26.242Z,76.60
2017-11-05T00:26:53.796Z,76.60
2017-11-05T00:29:21.393Z,76.50
2017-11-05T00:31:48.958Z,77.30
2017-11-05T00:34:16.518Z,76.80
2017-11-05T00:36:44.107Z,77.10
2017-11-05T00:39:12.421Z,76.70
2017-11-05T00:41:39.994Z,76.70
2017-11-05T00:44:07.573Z,76.50
2017-11-05T00:46:35.131Z,76.60
2017-11-05T00:49:03.443Z,76.50
2017-11-05T00:51:31.781Z,76.30
2017-11-05T00:53:59.321Z,76.30
2017-11-05T00:56:26.868Z,75.80
2017-11-05T00:58:54.445Z,76.30
2017-11-05T01:01:22.020Z,76.00
2017-11-05T01:03:49.572Z,75.90
2017-11-05T01:06:17.139Z,76.00
2017-11-05T01:08:44.676Z,76.20
2017-11-05T01:11:12.240Z,76.10
2017-11-05T01:13:39.845Z,75.70
2017-11-05T01:16:07.395Z,75.70
2017-11-05T01:18:34.960Z,75.90
2017-11-05T01:21:02.569Z,76.50
2017-11-05T01:23:30.122Z,77.10
2017-11-05T01:25:57.708Z,76.60
2017-11-05T01:28:25.288Z,77.10
2017-11-05T01:30:52.854Z,76.30
2017-11-05T01:33:20.441Z,77.00
2017-11-05T01:35:48.814Z,75.90
2017-11-05T01:38:17.129Z,76.00
2017-11-05T01:40:44.701Z,76.00
2017-11-05T01:43:12.305Z,77.00
2017-11-05T01:45:39.867Z,76.40
2017-11-05T01:48:08.186Z,76.50
2017-11-05T01:50:35.767Z,76.50
2017-11-05T01:53:03.299Z,76.10
2017-11-05T01:55:30.889Z,75.50
2017-11-05T01:57:58.499Z,76.70
2017-11-05T02:00:26.812Z,75.50
2017-11-05T02:02:54.347Z,76.10
2017-11-05T02:05:21.950Z,75.70
2017-11-05T02:07:49.507Z,76.20
2017-11-05T02:10:17.087Z,76.40
2017-11-05T02:12:44.686Z,76.30
2017-11-05T02:15:12.251Z,76.50
2017-11-05T02:17:39.790Z,76.40
2017-11-05T02:20:08.155Z,76.90
2017-11-05T02:22:36.519Z,76.00
2017-11-05T02:25:04.099Z,76.00
2017-11-05T02:27:32.483Z,75.60
2017-11-05T02:30:00.834Z,76.00
2017-11-05T02:32:28.392Z,76.00
2017-11-05T02:34:56.005Z,76.60
2017-11-05T02:37:24.320Z,76.30
2017-11-05T02:39:51.865Z,76.30
2017-11-05T02:42:19.454Z,76.40
2017-11-05T02:44:47.069Z,76.90
2017-11-05T02:47:14.749Z,76.60
2017-11-05T02:49:42.405Z,76.80
2017-11-05T02:52:09.983Z,76.80
2017-11-05T02:54:37.583Z,76.60
2017-11-05T02:57:05.972Z,77.30
2017-11-05T02:59:34.313Z,76.60
2017-11-05T03:02:01.900Z,76.60
2017-11-05T03:04:30.260Z,76.00
2017-11-05T03:06:57.832Z,75.90
2017-11-05T03:09:26.223Z,76.10
2017-11-05T03:11:54.624Z,76.10
2017-11-05T03:14:22.233Z,76.10
2017-11-05T03:16:49.820Z,76.30
2017-11-05T03:19:18.190Z,76.40
2017-11-05T03:21:45.799Z,76.40
2017-11-05T03:24:13.365Z,76.50
2017-11-05T03:26:40.964Z,76.60
2017-11-05T03:29:09.302Z,77.10
2017-11-05T03:31:36.903Z,77.10
2017-11-05T03:34:05.307Z,77.60
2017-11-05T03:36:32.899Z,77.60
2017-11-05T03:39:00.485Z,77.50
2017-11-05T03:41:28.115Z,77.40
2017-11-05T03:43:55.704Z,77.40
2017-11-05T03:46:23.279Z,77.40
2017-11-05T03:48:50.906Z,77.30
2017-11-05T03:51:18.493Z,77.40
2017-11-05T03:53:46.083Z,77.30
2017-11-05T03:56:14.460Z,77.50
2017-11-05T03:58:42.830Z,77.50
2017-11-05T04:01:11.198Z,77.60
2017-11-05T04:03:38.791Z,77.60
2017-11-05T04:06:06.377Z,77.80
2017-11-05T04:08:33.977Z,77.70
2017-11-05T04:11:01.591Z,77.70
2017-11-05T04:13:29.167Z,77.70
2017-11-05T04:15:56.773Z,78.40
2017-11-05T04:18:25.163Z,77.70
2017-11-05T04:20:52.769Z,77.70
2017-11-05T04:23:20.354Z,77.50
2017-11-05T04:25:47.983Z,77.20
2017-11-05T04:28:15.562Z,77.20
2017-11-05T04:30:43.146Z,77.30
2017-11-05T04:33:11.529Z,77.10
2017-11-05T04:35:39.915Z,77.10
2017-11-05T04:38:08.300Z,77.90
2017-11-05T04:40:36.681Z,78.10
2017-11-05T04:43:05.028Z,77.70
2017-11-05T04:45:32.629Z,77.60
2017-11-05T04:48:00.247Z,77.00
2017-11-05T04:50:27.833Z,77.10
2017-11-05T04:52:56.185Z,76.80
2017-11-05T04:55:23.794Z,76.80
2017-11-05T04:57:51.398Z,77.60
2017-11-05T05:00:19.777Z,78.00
2017-11-05T05:02:47.384Z,78.10
2017-11-05T05:05:14.965Z,78.60
2017-11-05T05:07:42.542Z,78.30
2017-11-05T05:10:10.165Z,77.40
2017-11-05T05:12:37.753Z,76.60
2017-11-05T05:15:05.335Z,76.00
2017-11-05T05:17:32.953Z,75.70
2017-11-05T05:20:00.588Z,76.10
2017-11-05T05:22:28.950Z,76.00
2017-11-05T05:24:56.536Z,76.00
2017-11-05T05:27:25.027Z,75.80
2017-11-05T05:29:52.619Z,75.00
2017-11-05T05:32:20.241Z,74.50
2017-11-05T05:34:47.854Z,73.70
2017-11-05T05:37:15.461Z,73.30
2017-11-05T05:39:43.068Z,72.70
2017-11-05T05:42:10.657Z,72.30
2017-11-05T05:44:38.267Z,71.80
2017-11-05T05:47:05.878Z,71.20
2017-11-05T05:49:34.225Z,71.60
2017-11-05T05:52:01.830Z,71.00
2017-11-05T05:54:30.218Z,71.40
2017-11-05T05:56:57.803Z,71.40
2017-11-05T05:59:25.383Z,72.90
2017-11-05T06:01:53.014Z,73.30
2017-11-05T06:04:20.638Z,73.10
2017-11-05T06:06:49.005Z,72.20
2017-11-05T06:09:16.646Z,72.20
2017-11-05T06:11:44.216Z,71.20
2017-11-05T06:14:11.812Z,70.20
2017-11-05T06:16:40.251Z,68.90
2017-11-05T06:19:07.839Z,68.90
2017-11-05T06:21:36.168Z,68.60
2017-11-05T06:24:03.806Z,68.60
2017-11-05T06:26:31.395Z,70.40
2017-11-05T06:28:58.975Z,71.90
2017-11-05T06:31:26.577Z,72.00
2017-11-05T06:33:54.179Z,71.70
2017-11-05T06:36:21.764Z,71.80
2017-11-05T06:38:49.376Z,72.00
2017-11-05T06:41:16.966Z,72.10
2017-11-05T06:43:44.585Z,73.20
2017-11-05T06:46:12.211Z,72.70
2017-11-05T06:48:39.829Z,72.90
2017-11-05T06:51:07.434Z,72.40
2017-11-05T06:53:35.073Z,73.10
2017-11-05T06:56:02.667Z,73.10
2017-11-05T06:58:31.022Z,73.20
2017-11-05T07:00:58.650Z,73.10
2017-11-05T07:03:26.270Z,73.30
2017-11-05T07:05:54.634Z,73.60
2017-11-05T07:08:22.235Z,73.50
2017-11-05T07:10:49.807Z,74.60
2017-11-05T07:13:17.403Z,74.00
2017-11-05T07:15:45.143Z,74.30
2017-11-05T07:18:12.744Z,74.10
2017-11-05T07:20:41.093Z,74.70
2017-11-05T07:23:08.703Z,74.00
2017-11-05T07:25:37.063Z,73.70
2017-11-05T07:28:05.427Z,73.70
2017-11-05T07:30:33.058Z,73.60
2017-11-05T07:33:01.411Z,74.30
2017-11-05T07:35:28.999Z,74.30
2017-11-05T07:37:56.616Z,75.50
2017-11-05T07:40:24.221Z,76.80
2017-11-05T07:42:51.824Z,76.90
2017-11-05T07:45:20.226Z,78.30
2017-11-05T07:47:47.811Z,78.30
2017-11-05T07:50:15.384Z,78.50
2017-11-05T07:52:43.764Z,78.70
2017-11-05T07:55:11.365Z,78.60
2017-11-05T07:57:39.748Z,77.90
2017-11-05T08:00:08.154Z,77.40
2017-11-05T08:02:35.787Z,78.00
2017-11-05T08:05:04.157Z,76.30
2017-11-05T08:07:32.527Z,76.30
2017-11-05T08:10:00.133Z,76.20
2017-11-05T08:12:27.704Z,76.50
2017-11-05T08:14:55.328Z,76.60
2017-11-05T08:17:23.705Z,77.20
2017-11-05T08:19:52.065Z,76.90
2017-11-05T08:22:19.685Z,76.90
2017-11-05T08:24:47.272Z,76.80
2017-11-05T08:27:14.876Z,76.90
2017-11-05T08:29:42.470Z,76.80
2017-11-05T08:32:10.059Z,76.60
2017-11-05T08:34:37.691Z,77.20
2017-11-05T08:37:05.279Z,77.20
2017-11-05T08:39:32.863Z,77.10
2017-11-05T08:42:01.267Z,77.40
2017-11-05T08:44:28.889Z,77.40
2017-11-05T08:46:57.232Z,76.90
2017-11-05T08:49:24.790Z,76.90
2017-11-05T08:51:52.398Z,77.30
2017-11-05T08:54:20.781Z,77.30
2017-11-05T08:56:49.126Z,77.60
2017-11-05T08:59:16.734Z,77.60
2017-11-05T09:01:44.321Z,77.70
2017-11-05T09:04:11.914Z,77.50
2017-11-05T09:06:39.520Z,77.40
2017-11-05T09:09:07.081Z,77.30
2017-11-05T09:11:34.689Z,78.10
2017-11-05T09:14:02.298Z,77.90
2017-11-05T09:16:29.876Z,77.70
2017-11-05T09:18:57.444Z,77.70
2017-11-05T09:21:25.049Z,78.30
2017-11-05T09:23:52.598Z,78.90
2017-11-05T09:26:20.191Z,78.50
2017-11-05T09:28:48.539Z,76.70
2017-11-05T09:31:16.117Z,76.70
2017-11-05T09:33:44.440Z,76.70
2017-11-05T09:36:12.054Z,76.70
2017-11-05T09:38:40.383Z,77.50
2017-11-05T09:41:07.930Z,76.70
2017-11-05T09:43:35.531Z,76.60
2017-11-05T09:46:03.097Z,76.90
2017-11-05T09:48:30.651Z,76.90
2017-11-05T09:50:58.245Z,77.00
2017-11-05T09:53:26.569Z,77.50
2017-11-05T09:55:54.125Z,77.50
2017-11-05T09:58:21.728Z,76.80
2017-11-05T10:00:50.054Z,78.00
2017-11-05T10:03:17.606Z,77.70
2017-11-05T10:05:45.218Z,77.40
2017-11-05T10:08:14.273Z,77.40
2017-11-05T10:10:41.854Z,77.40
2017-11-05T10:13:09.464Z,76.90
2017-11-05T10:15:37.017Z,77.20
2017-11-05T10:18:05.349Z,76.80
2017-11-05T10:20:32.946Z,76.80
2017-11-05T10:23:01.264Z,77.00
2017-11-05T10:25:28.817Z,77.00
2017-11-05T10:27:56.395Z,77.00
2017-11-05T10:30:23.962Z,76.90
2017-11-05T10:32:51.531Z,76.70
2017-11-05T10:35:19.132Z,77.00
2017-11-05T10:37:47.454Z,77.60
2017-11-05T10:40:15.014Z,77.60
2017-11-05T10:42:42.618Z,77.40
2017-11-05T10:45:10.941Z,77.90
2017-11-05T10:47:38.504Z,77.80
2017-11-05T10:50:06.239Z,78.40
2017-11-05T10:52:33.818Z,77.90
2017-11-05T10:55:01.383Z,78.10
2017-11-05T10:57:28.984Z,78.10
2017-11-05T10:59:56.552Z,78.10
2017-11-05T11:02:24.886Z,78.10
2017-11-05T11:04:52.466Z,78.00
2017-11-05T11:07:20.051Z,78.30
2017-11-05T11:09:48.376Z,78.80
2017-11-05T11:12:15.964Z,78.80
2017-11-05T11:14:43.534Z,78.80
2017-11-05T11:17:11.103Z,78.80
2017-11-05T11:19:38.697Z,79.70
2017-11-05T11:22:06.248Z,79.70
2017-11-05T11:24:33.813Z,78.10
2017-11-05T11:27:01.421Z,78.00
2017-11-05T11:29:28.989Z,77.40
2017-11-05T11:31:56.553Z,76.10
2017-11-05T11:34:24.148Z,75.30
2017-11-05T11:36:51.695Z,74.20
2017-11-05T11:39:20.036Z,73.90
2017-11-05T11:41:47.647Z,73.90
2017-11-05T11:44:15.226Z,73.80
2017-11-05T11:46:42.782Z,74.40
2017-11-05T11:49:10.389Z,74.70
2017-11-05T11:51:37.978Z,74.70
2017-11-05T11:54:06.316Z,75.50
2017-11-05T11:56:33.921Z,74.80
2017-11-05T11:59:02.260Z,75.00
2017-11-05T12:01:29.861Z,75.00
2017-11-05T12:03:57.453Z,74.90
2017-11-05T12:06:25.022Z,74.80
2017-11-05T12:08:52.571Z,75.00
2017-11-05T12:11:20.162Z,75.30
2017-11-05T12:13:47.729Z,75.50
2017-11-05T12:16:15.281Z,75.90
2017-11-05T12:18:42.896Z,75.90
2017-11-05T12:21:10.487Z,76.20
2017-11-05T12:23:38.036Z,76.80
2017-11-05T12:26:05.608Z,76.60
2017-11-05T12:28:33.169Z,76.70
2017-11-05T12:31:00.735Z,76.60
2017-11-05T12:33:28.356Z,76.70
2017-11-05T12:35:55.932Z,77.10
2017-11-05T12:38:23.503Z,77.30
2017-11-05T12:40:51.102Z,77.50
2017-11-05T12:43:19.466Z,78.50
2017-11-05T12:45:47.025Z,78.50
2017-11-05T12:48:15.397Z,78.70
2017-11-05T12:50:42.968Z,79.00
2017-11-05T12:53:10.512Z,79.30
2017-11-05T12:55:38.113Z,80.30
2017-11-05T12:58:06.445Z,80.50
2017-11-05T13:00:34.785Z,81.30
2017-11-05T13:03:02.375Z,81.40
2017-11-05T13:05:29.922Z,81.60
2017-11-05T13:07:58.337Z,81.70
2017-11-05T13:10:25.935Z,81.70
2017-11-05T13:12:53.502Z,81.90
2017-11-05T13:15:21.075Z,82.10
2017-11-05T13:17:48.662Z,82.30
2017-11-05T13:20:16.233Z,82.70
2017-11-05T13:22:43.800Z,82.60
2017-11-05T13:25:11.390Z,82.40
2017-11-05T13:27:38.932Z,82.30
2017-11-05T13:30:07.279Z,82.20
2017-11-05T13:32:34.896Z,82.20
2017-11-05T13:35:02.460Z,82.00
2017-11-05T13:37:30.009Z,82.00
2017-11-05T13:39:57.583Z,81.50
2017-11-05T13:42:25.906Z,81.40
2017-11-05T13:44:53.510Z,81.30
2017-11-05T13:47:21.099Z,80.80
2017-11-05T13:49:48.660Z,79.50
2017-11-05T13:52:16.217Z,79.00
2017-11-05T13:54:43.814Z,79.20
2017-11-05T13:57:11.386Z,78.90
2017-11-05T13:59:39.739Z,79.30
2017-11-05T14:02:07.371Z,79.90
2017-11-05T14:04:34.955Z,78.80
2017-11-05T14:07:02.514Z,79.20
2017-11-05T14:09:30.080Z,79.30
2017-11-05T14:11:57.656Z,79.30
2017-11-05T14:14:25.219Z,79.30
2017-11-05T14:16:53.574Z,79.40
2017-11-05T14:19:21.182Z,79.80
2017-11-05T14:21:48.783Z,79.60
2017-11-05T14:24:16.415Z,79.70
2017-11-05T14:26:43.989Z,79.20
2017-11-05T14:29:11.561Z,78.90
2017-11-05T14:31:39.146Z,79.20
2017-11-05T14:34:06.722Z,79.10
2017-11-05T14:36:35.053Z,78.70
2017-11-05T14:39:03.466Z,76.20
2017-11-05T14:41:31.059Z,76.20
2017-11-05T14:43:58.632Z,76.20
2017-11-05T14:46:26.311Z,75.00
2017-11-05T14:48:53.899Z,74.40
2017-11-05T14:51:21.443Z,74.50
2017-11-05T14:53:49.069Z,73.90
2017-11-05T14:56:16.705Z,73.40
2017-11-05T14:58:45.087Z,73.20
2017-11-05T15:01:13.483Z,73.40
2017-11-05T15:03:41.053Z,73.40
2017-11-05T15:06:08.652Z,73.10
2017-11-05T15:08:36.218Z,73.40
2017-11-05T15:11:03.770Z,73.00
2017-11-05T15:13:32.146Z,73.40
2017-11-05T15:15:59.762Z,72.90
2017-11-05T15:18:27.338Z,73.00
2017-11-05T15:20:54.937Z,73.30
2017-11-05T15:23:22.501Z,72.30
2017-11-05T15:25:50.082Z,72.60
2017-11-05T15:28:18.424Z,73.30
2017-11-05T15:30:46.007Z,73.20
2017-11-05T15:33:13.628Z,73.20
2017-11-05T15:35:41.221Z,73.50
2017-11-05T15:38:08.793Z,73.50
2017-11-05T15:40:37.165Z,72.60
2017-11-05T15:43:04.755Z,72.60
2017-11-05T15:45:32.313Z,72.10
2017-11-05T15:48:00.629Z,71.70
2017-11-05T15:50:28.240Z,71.70
2017-11-05T15:52:56.592Z,71.90
2017-11-05T15:55:24.142Z,71.90
2017-11-05T15:57:51.787Z,72.00
2017-11-05T16:00:19.368Z,72.20
2017-11-05T16:02:46.905Z,72.60
2017-11-05T16:05:14.507Z,73.00
2017-11-05T16:07:42.825Z,73.30
2017-11-05T16:10:10.377Z,73.30
2017-11-05T16:12:38.212Z,72.90
2017-11-05T16:15:06.532Z,72.70
2017-11-05T16:17:34.091Z,72.70
2017-11-05T16:20:01.673Z,72.80
2017-11-05T16:22:29.249Z,72.90
2017-11-05T16:24:56.803Z,72.80
2017-11-05T16:27:25.164Z,72.80
2017-11-05T16:29:52.751Z,72.90
2017-11-05T16:32:20.344Z,73.00
2017-11-05T16:34:48.693Z,73.30
2017-11-05T16:37:16.289Z,73.30
2017-11-05T16:39:43.896Z,73.30
2017-11-05T16:42:11.493Z,73.20
2017-11-05T16:44:39.815Z,73.90
2017-11-05T16:47:07.405Z,73.80
2017-11-05T16:49:34.969Z,73.70
2017-11-05T16:52:02.541Z,73.70
2017-11-05T16:54:30.884Z,74.20
2017-11-05T16:56:59.206Z,74.30
2017-11-05T16:59:27.537Z,74.40
2017-11-05T17:01:55.134Z,74.40
2017-11-05T17:04:23.439Z,75.10
2017-11-05T17:06:51.055Z,74.60
2017-11-05T17:09:18.630Z,74.80
2017-11-05T17:11:46.194Z,75.30
2017-11-05T17:14:14.553Z,75.50
2017-11-05T17:16:42.181Z,75.50
2017-11-05T17:19:09.744Z,75.50
2017-11-05T17:21:37.314Z,75.70
2017-11-05T17:24:04.902Z,76.60
2017-11-05T17:26:32.475Z,76.60
2017-11-05T17:29:00.814Z,77.20
2017-11-05T17:31:28.503Z,77.10
2017-11-05T17:33:56.060Z,77.00
2017-11-05T17:36:23.658Z,77.40
2017-11-05T17:38:52.021Z,77.20
2017-11-05T17:41:20.373Z,77.90
2017-11-05T17:43:47.938Z,77.90
2017-11-05T17:46:15.525Z,77.80
2017-11-05T17:48:43.842Z,77.30
2017-11-05T17:51:11.433Z,77.30
2017-11-05T17:53:39.022Z,76.90
2017-11-05T17:56:07.355Z,77.10
2017-11-05T17:58:34.912Z,77.10
2017-11-05T18:01:02.508Z,77.80
2017-11-05T18:03:30.838Z,77.60
2017-11-05T18:05:58.394Z,77.60
2017-11-05T18:08:25.993Z,78.20
2017-11-05T18:10:53.545Z,78.30
2017-11-05T18:13:21.126Z,78.20
2017-11-05T18:15:49.495Z,78.70
2017-11-05T18:18:17.851Z,78.00
2017-11-05T18:20:45.426Z,78.60
2017-11-05T18:23:13.017Z,77.40
2017-11-05T18:25:40.594Z,77.10
2017-11-05T18:28:08.163Z,76.90
2017-11-05T18:30:35.772Z,77.10
2017-11-05T18:33:03.348Z,76.60
2017-11-05T18:35:31.675Z,76.90
2017-11-05T18:37:59.268Z,76.90
2017-11-05T18:40:26.815Z,77.50
2017-11-05T18:42:54.374Z,76.90
2017-11-05T18:45:22.746Z,76.70
2017-11-05T18:47:50.326Z,76.60
2017-11-05T18:50:17.878Z,76.70
2017-11-05T18:52:45.461Z,76.70
2017-11-05T18:55:13.809Z,76.50
2017-11-05T18:57:41.378Z,76.50
2017-11-05T19:00:09.003Z,76.30
2017-11-05T19:02:36.585Z,76.10
2017-11-05T19:05:04.168Z,76.30
2017-11-05T19:07:33.442Z,76.20
2017-11-05T19:10:00.997Z,76.20
2017-11-05T19:12:28.807Z,76.00
2017-11-05T19:14:57.892Z,75.90
2017-11-05T19:17:26.740Z,75.70
2017-11-05T19:19:54.388Z,75.70
2017-11-05T19:22:21.982Z,75.40
2017-11-05T19:24:49.852Z,75.50
2017-11-05T19:27:17.696Z,75.30
2017-11-05T19:29:45.350Z,75.40
2017-11-05T19:32:12.921Z,75.20
2017-11-05T19:34:40.507Z,75.40
2017-11-05T19:37:08.792Z,75.30
2017-11-05T19:39:37.100Z,75.20
2017-11-05T19:42:04.987Z,75.20
2017-11-05T19:44:33.134Z,75.10
2017-11-05T19:47:00.755Z,75.20
2017-11-05T19:49:28.295Z,75.30
2017-11-05T19:51:55.889Z,74.80
2017-11-05T19:54:24.469Z,74.70
2017-11-05T19:56:52.305Z,74.70
2017-11-05T19:59:19.962Z,74.60
2017-11-05T20:01:47.518Z,74.50
2017-11-05T20:04:15.190Z,74.50
2017-11-05T20:06:42.831Z,74.50
2017-11-05T20:09:10.381Z,74.70
2017-11-05T20:11:38.363Z,74.60
2017-11-05T20:14:06.189Z,74.90
2017-11-05T20:16:34.506Z,74.90
2017-11-05T20:19:02.065Z,74.80
2017-11-05T20:21:29.631Z,74.80
2017-11-05T20:23:57.190Z,75.10
2017-11-05T20:26:24.744Z,75.20
2017-11-05T20:28:52.334Z,75.10
2017-11-05T20:31:19.939Z,75.30
2017-11-05T20:33:47.524Z,75.30
2017-11-05T20:36:15.102Z,75.80
2017-11-05T20:38:43.699Z,75.00
2017-11-05T20:41:11.346Z,74.80
2017-11-05T20:43:38.913Z,74.90
2017-11-05T20:46:06.522Z,75.10
2017-11-05T20:48:34.087Z,75.20
2017-11-05T20:51:01.641Z,75.20
2017-11-05T20:53:29.222Z,75.20
2017-11-05T20:55:56.773Z,75.10
2017-11-05T20:58:24.347Z,75.20
2017-11-05T21:00:51.929Z,75.60
2017-11-05T21:03:19.487Z,75.70
2017-11-05T21:05:47.029Z,75.70
2017-11-05T21:08:14.611Z,75.60
2017-11-05T21:10:42.181Z,75.90
2017-11-05T21:13:09.735Z,76.00
2017-11-05T21:15:37.300Z,76.30
2017-11-05T21:18:04.855Z,76.10
2017-11-05T21:20:32.406Z,76.70
2017-11-05T21:23:00.017Z,77.50
2017-11-05T21:25:27.565Z,76.90
2017-11-05T21:30:29.737Z,76.10
2017-11-05T21:32:58.065Z,76.10
2017-11-05T21:35:25.637Z,76.00
2017-11-05T21:37:53.220Z,75.90
2017-11-05T21:40:20.772Z,75.60
2017-11-05T21:42:48.331Z,75.90
2017-11-05T21:45:15.900Z,76.00
2017-11-05T21:47:43.441Z,76.30
2017-11-05T21:50:10.990Z,76.50
2017-11-05T21:52:38.555Z,76.30
2017-11-05T21:55:07.504Z,76.10
2017-11-05T21:57:35.045Z,76.00
2017-11-05T22:00:03.440Z,75.90
2017-11-05T22:02:31.009Z,75.90
2017-11-05T22:04:58.574Z,75.70
2017-11-05T22:07:26.171Z,75.80
2017-11-05T22:09:53.742Z,75.10
2017-11-05T22:12:21.296Z,75.00
2017-11-05T22:14:48.894Z,75.30
2017-11-05T22:17:17.209Z,75.40
2017-11-05T22:19:44.763Z,75.30
2017-11-05T22:22:12.359Z,75.50
2017-11-05T22:24:39.911Z,75.80
2017-11-05T22:27:07.465Z,75.40
2017-11-05T22:29:35.061Z,75.40
2017-11-05T22:32:03.385Z,75.70
2017-11-05T22:34:30.923Z,75.60
2017-11-05T22:36:58.512Z,75.50
2017-11-05T22:39:26.066Z,75.60
2017-11-05T22:41:55.363Z,75.80
2017-11-05T22:44:22.948Z,75.80
2017-11-05T22:46:50.500Z,75.70
2017-11-05T22:49:18.083Z,76.20
2017-11-05T22:51:45.676Z,75.80
2017-11-05T22:54:13.226Z,75.00
2017-11-05T22:56:41.558Z,75.70
2017-11-05T22:59:09.133Z,75.70
2017-11-05T23:01:36.677Z,75.20
2017-11-05T23:04:04.221Z,75.10
2017-11-05T23:06:31.811Z,74.90
2017-11-05T23:08:59.377Z,74.80
2017-11-05T23:11:26.929Z,74.90
2017-11-05T23:13:55.293Z,74.80
2017-11-05T23:16:22.842Z,74.80
2017-11-05T23:18:50.399Z,75.00
2017-11-05T23:21:17.978Z,75.10
2017-11-05T23:23:45.529Z,75.00
2017-11-05T23:26:13.102Z,75.20
2017-11-05T23:28:40.703Z,75.00
2017-11-05T23:31:09.029Z,74.80
2017-11-05T23:33:36.574Z,74.90
2017-11-05T23:36:04.178Z,74.50
2017-11-05T23:38:32.493Z,74.50
2017-11-05T23:41:00.050Z,74.50
2017-11-05T23:43:27.640Z,74.60
2017-11-05T23:45:55.180Z,74.50
2017-11-05T23:48:22.733Z,74.50
2017-11-05T23:50:50.325Z,74.50
2017-11-05T23:53:17.873Z,74.60
2017-11-05T23:55:45.427Z,74.40
2017-11-05T23:58:13.001Z,74.50
